sensor_id;sensor_type;location;lat;lon;timestamp;temperature;humidity
42841;DHT22;28491;46.898;7.660;2023-09-19T00:01:22;15.40;92.90
42841;DHT22;28491;46.898;7.660;2023-09-19T00:03:49;15.50;94.00
42841;DHT22;28491;46.898;7.660;2023-09-19T00:06:14;15.60;94.40
42841;DHT22;28491;46.898;7.660;2023-09-19T00:08:41;15.50;93.40
42841;DHT22;28491;46.898;7.660;2023-09-19T00:11:09;15.50;93.90
42841;DHT22;28491;46.898;7.660;2023-09-19T00:13:36;15.50;93.50
42841;DHT22;28491;46.898;7.660;2023-09-19T00:16:09;15.50;93.60
42841;DHT22;28491;46.898;7.660;2023-09-19T00:18:36;15.40;94.10
42841;DHT22;28491;46.898;7.660;2023-09-19T00:21:02;15.50;94.30
42841;DHT22;28491;46.898;7.660;2023-09-19T00:23:30;15.60;93.90
42841;DHT22;28491;46.898;7.660;2023-09-19T00:25:59;15.50;92.80
42841;DHT22;28491;46.898;7.660;2023-09-19T00:28:24;15.60;93.40
42841;DHT22;28491;46.898;7.660;2023-09-19T00:30:50;15.50;92.90
42841;DHT22;28491;46.898;7.660;2023-09-19T00:33:16;15.50;92.60
42841;DHT22;28491;46.898;7.660;2023-09-19T00:35:51;15.40;93.20
42841;DHT22;28491;46.898;7.660;2023-09-19T00:38:18;15.30;94.00
42841;DHT22;28491;46.898;7.660;2023-09-19T00:40:47;15.30;94.40
42841;DHT22;28491;46.898;7.660;2023-09-19T00:43:13;15.30;95.30
42841;DHT22;28491;46.898;7.660;2023-09-19T00:45:43;15.30;95.30
42841;DHT22;28491;46.898;7.660;2023-09-19T00:48:09;15.40;95.40
42841;DHT22;28491;46.898;7.660;2023-09-19T00:50:36;15.40;94.90
42841;DHT22;28491;46.898;7.660;2023-09-19T00:53:02;15.30;94.70
42841;DHT22;28491;46.898;7.660;2023-09-19T00:55:36;15.30;95.20
42841;DHT22;28491;46.898;7.660;2023-09-19T00:58:10;15.30;95.40
42841;DHT22;28491;46.898;7.660;2023-09-19T01:00:36;15.30;95.40
42841;DHT22;28491;46.898;7.660;2023-09-19T01:03:02;15.40;95.50
42841;DHT22;28491;46.898;7.660;2023-09-19T01:05:28;15.30;95.10
42841;DHT22;28491;46.898;7.660;2023-09-19T01:07:54;15.40;95.20
42841;DHT22;28491;46.898;7.660;2023-09-19T01:10:21;15.20;95.50
42841;DHT22;28491;46.898;7.660;2023-09-19T01:18:42;15.10;96.00
42841;DHT22;28491;46.898;7.660;2023-09-19T01:21:29;15.10;96.40
42841;DHT22;28491;46.898;7.660;2023-09-19T01:29:39;15.20;96.50
42841;DHT22;28491;46.898;7.660;2023-09-19T01:32:10;15.30;96.30
42841;DHT22;28491;46.898;7.660;2023-09-19T01:34:51;15.30;96.00
42841;DHT22;28491;46.898;7.660;2023-09-19T01:37:18;15.30;95.40
42841;DHT22;28491;46.898;7.660;2023-09-19T01:40:00;15.30;95.50
42841;DHT22;28491;46.898;7.660;2023-09-19T01:46:18;15.40;96.00
42841;DHT22;28491;46.898;7.660;2023-09-19T01:51:49;15.30;95.80
42841;DHT22;28491;46.898;7.660;2023-09-19T01:54:26;15.20;96.00
42841;DHT22;28491;46.898;7.660;2023-09-19T01:59:50;15.10;96.40
42841;DHT22;28491;46.898;7.660;2023-09-19T02:02:20;15.30;96.70
42841;DHT22;28491;46.898;7.660;2023-09-19T02:04:48;15.10;96.60
42841;DHT22;28491;46.898;7.660;2023-09-19T02:07:14;15.10;97.00
42841;DHT22;28491;46.898;7.660;2023-09-19T02:09:40;15.10;96.90
42841;DHT22;28491;46.898;7.660;2023-09-19T02:12:09;15.10;96.80
42841;DHT22;28491;46.898;7.660;2023-09-19T02:14:34;15.10;96.60
42841;DHT22;28491;46.898;7.660;2023-09-19T02:17:02;15.20;96.70
42841;DHT22;28491;46.898;7.660;2023-09-19T02:19:29;15.20;96.70
42841;DHT22;28491;46.898;7.660;2023-09-19T02:21:55;15.30;97.00
42841;DHT22;28491;46.898;7.660;2023-09-19T02:24:21;15.20;96.80
42841;DHT22;28491;46.898;7.660;2023-09-19T02:26:46;15.20;96.60
42841;DHT22;28491;46.898;7.660;2023-09-19T02:29:12;15.20;96.70
42841;DHT22;28491;46.898;7.660;2023-09-19T02:31:39;15.30;96.60
42841;DHT22;28491;46.898;7.660;2023-09-19T02:34:04;15.30;96.20
42841;DHT22;28491;46.898;7.660;2023-09-19T02:36:32;15.30;96.10
42841;DHT22;28491;46.898;7.660;2023-09-19T02:38:57;15.30;95.80
42841;DHT22;28491;46.898;7.660;2023-09-19T02:41:23;15.20;96.00
42841;DHT22;28491;46.898;7.660;2023-09-19T02:43:48;15.20;96.40
42841;DHT22;28491;46.898;7.660;2023-09-19T02:46:14;15.10;96.20
42841;DHT22;28491;46.898;7.660;2023-09-19T02:48:40;15.10;95.90
42841;DHT22;28491;46.898;7.660;2023-09-19T02:51:05;15.10;96.20
42841;DHT22;28491;46.898;7.660;2023-09-19T02:53:31;15.10;96.30
42841;DHT22;28491;46.898;7.660;2023-09-19T02:55:57;15.10;96.40
42841;DHT22;28491;46.898;7.660;2023-09-19T02:58:24;15.00;96.40
42841;DHT22;28491;46.898;7.660;2023-09-19T03:00:50;15.10;96.60
42841;DHT22;28491;46.898;7.660;2023-09-19T03:03:17;15.10;96.80
42841;DHT22;28491;46.898;7.660;2023-09-19T03:05:43;15.00;96.70
42841;DHT22;28491;46.898;7.660;2023-09-19T03:08:15;15.00;96.70
42841;DHT22;28491;46.898;7.660;2023-09-19T03:10:42;15.10;96.80
42841;DHT22;28491;46.898;7.660;2023-09-19T03:13:07;15.10;96.50
42841;DHT22;28491;46.898;7.660;2023-09-19T03:15:35;15.20;96.60
42841;DHT22;28491;46.898;7.660;2023-09-19T03:18:04;15.20;96.20
42841;DHT22;28491;46.898;7.660;2023-09-19T03:20:30;15.20;96.20
42841;DHT22;28491;46.898;7.660;2023-09-19T03:22:55;15.20;95.80
42841;DHT22;28491;46.898;7.660;2023-09-19T03:25:22;15.20;95.90
42841;DHT22;28491;46.898;7.660;2023-09-19T03:27:48;15.10;96.10
42841;DHT22;28491;46.898;7.660;2023-09-19T03:30:14;15.10;96.10
42841;DHT22;28491;46.898;7.660;2023-09-19T03:32:46;15.10;95.90
42841;DHT22;28491;46.898;7.660;2023-09-19T03:35:15;15.00;96.10
42841;DHT22;28491;46.898;7.660;2023-09-19T03:37:42;15.10;96.70
42841;DHT22;28491;46.898;7.660;2023-09-19T03:40:08;15.00;96.20
42841;DHT22;28491;46.898;7.660;2023-09-19T03:42:38;15.00;96.20
42841;DHT22;28491;46.898;7.660;2023-09-19T03:45:04;15.00;96.50
42841;DHT22;28491;46.898;7.660;2023-09-19T03:47:31;14.90;96.60
42841;DHT22;28491;46.898;7.660;2023-09-19T03:49:56;14.90;97.00
42841;DHT22;28491;46.898;7.660;2023-09-19T03:52:22;14.90;97.50
42841;DHT22;28491;46.898;7.660;2023-09-19T03:54:47;14.90;97.40
42841;DHT22;28491;46.898;7.660;2023-09-19T03:57:13;15.00;97.40
42841;DHT22;28491;46.898;7.660;2023-09-19T03:59:41;14.90;97.30
42841;DHT22;28491;46.898;7.660;2023-09-19T04:02:08;14.90;97.00
42841;DHT22;28491;46.898;7.660;2023-09-19T04:04:38;15.00;97.30
42841;DHT22;28491;46.898;7.660;2023-09-19T04:07:04;15.00;97.00
42841;DHT22;28491;46.898;7.660;2023-09-19T04:09:30;15.00;96.70
42841;DHT22;28491;46.898;7.660;2023-09-19T04:11:55;15.00;96.70
42841;DHT22;28491;46.898;7.660;2023-09-19T04:14:21;14.90;97.00
42841;DHT22;28491;46.898;7.660;2023-09-19T04:16:46;15.00;97.30
42841;DHT22;28491;46.898;7.660;2023-09-19T04:19:12;15.00;97.40
42841;DHT22;28491;46.898;7.660;2023-09-19T04:21:38;15.00;96.80
42841;DHT22;28491;46.898;7.660;2023-09-19T04:24:03;15.00;96.90
42841;DHT22;28491;46.898;7.660;2023-09-19T04:26:29;15.10;96.90
42841;DHT22;28491;46.898;7.660;2023-09-19T04:28:54;15.20;96.80
42841;DHT22;28491;46.898;7.660;2023-09-19T04:31:21;15.10;96.70
42841;DHT22;28491;46.898;7.660;2023-09-19T04:33:47;15.10;96.60
42841;DHT22;28491;46.898;7.660;2023-09-19T04:36:13;15.20;96.60
42841;DHT22;28491;46.898;7.660;2023-09-19T04:38:39;15.20;96.40
42841;DHT22;28491;46.898;7.660;2023-09-19T04:41:05;15.20;96.20
42841;DHT22;28491;46.898;7.660;2023-09-19T04:43:30;15.20;96.40
42841;DHT22;28491;46.898;7.660;2023-09-19T04:45:56;15.30;96.00
42841;DHT22;28491;46.898;7.660;2023-09-19T04:48:22;15.20;95.90
42841;DHT22;28491;46.898;7.660;2023-09-19T04:50:51;15.20;95.80
42841;DHT22;28491;46.898;7.660;2023-09-19T04:53:17;15.20;96.00
42841;DHT22;28491;46.898;7.660;2023-09-19T04:55:49;15.20;96.00
42841;DHT22;28491;46.898;7.660;2023-09-19T04:58:14;15.20;96.10
42841;DHT22;28491;46.898;7.660;2023-09-19T05:00:40;15.20;96.00
42841;DHT22;28491;46.898;7.660;2023-09-19T05:03:05;15.10;96.30
42841;DHT22;28491;46.898;7.660;2023-09-19T05:05:34;15.00;97.00
42841;DHT22;28491;46.898;7.660;2023-09-19T05:08:00;15.00;97.50
42841;DHT22;28491;46.898;7.660;2023-09-19T05:10:25;14.90;97.60
42841;DHT22;28491;46.898;7.660;2023-09-19T05:12:54;14.90;97.70
42841;DHT22;28491;46.898;7.660;2023-09-19T05:15:20;14.90;98.00
42841;DHT22;28491;46.898;7.660;2023-09-19T05:17:50;14.80;98.20
42841;DHT22;28491;46.898;7.660;2023-09-19T05:20:17;14.90;98.50
42841;DHT22;28491;46.898;7.660;2023-09-19T05:25:24;14.90;98.50
42841;DHT22;28491;46.898;7.660;2023-09-19T05:27:53;15.00;98.50
42841;DHT22;28491;46.898;7.660;2023-09-19T05:30:18;15.00;98.30
42841;DHT22;28491;46.898;7.660;2023-09-19T05:32:45;15.00;98.10
42841;DHT22;28491;46.898;7.660;2023-09-19T05:35:11;15.00;97.70
42841;DHT22;28491;46.898;7.660;2023-09-19T05:37:38;15.10;97.80
42841;DHT22;28491;46.898;7.660;2023-09-19T05:40:04;15.00;97.60
42841;DHT22;28491;46.898;7.660;2023-09-19T05:42:38;15.00;97.70
42841;DHT22;28491;46.898;7.660;2023-09-19T05:45:05;15.00;98.00
42841;DHT22;28491;46.898;7.660;2023-09-19T05:47:32;15.00;98.20
42841;DHT22;28491;46.898;7.660;2023-09-19T05:49:57;14.90;98.30
42841;DHT22;28491;46.898;7.660;2023-09-19T05:52:24;15.00;98.50
42841;DHT22;28491;46.898;7.660;2023-09-19T05:54:50;15.00;98.40
42841;DHT22;28491;46.898;7.660;2023-09-19T05:57:15;14.90;98.30
42841;DHT22;28491;46.898;7.660;2023-09-19T05:59:42;15.00;98.50
42841;DHT22;28491;46.898;7.660;2023-09-19T06:02:08;15.00;98.60
42841;DHT22;28491;46.898;7.660;2023-09-19T06:04:35;15.00;98.70
42841;DHT22;28491;46.898;7.660;2023-09-19T06:07:00;15.00;98.80
42841;DHT22;28491;46.898;7.660;2023-09-19T06:09:28;15.00;98.80
42841;DHT22;28491;46.898;7.660;2023-09-19T06:11:54;15.00;98.70
42841;DHT22;28491;46.898;7.660;2023-09-19T06:14:20;15.00;98.80
42841;DHT22;28491;46.898;7.660;2023-09-19T06:16:46;15.00;98.80
42841;DHT22;28491;46.898;7.660;2023-09-19T06:19:12;15.00;98.80
42841;DHT22;28491;46.898;7.660;2023-09-19T06:21:38;15.00;98.90
42841;DHT22;28491;46.898;7.660;2023-09-19T06:24:04;15.00;98.80
42841;DHT22;28491;46.898;7.660;2023-09-19T06:26:30;15.00;98.90
42841;DHT22;28491;46.898;7.660;2023-09-19T06:28:56;15.10;98.80
42841;DHT22;28491;46.898;7.660;2023-09-19T06:31:22;15.10;98.70
42841;DHT22;28491;46.898;7.660;2023-09-19T06:33:51;15.20;98.60
42841;DHT22;28491;46.898;7.660;2023-09-19T06:36:17;15.20;98.50
42841;DHT22;28491;46.898;7.660;2023-09-19T06:38:42;15.20;97.90
42841;DHT22;28491;46.898;7.660;2023-09-19T06:41:08;15.20;98.10
42841;DHT22;28491;46.898;7.660;2023-09-19T06:43:34;15.10;98.20
42841;DHT22;28491;46.898;7.660;2023-09-19T06:46:01;15.10;98.50
42841;DHT22;28491;46.898;7.660;2023-09-19T06:48:27;15.20;98.50
42841;DHT22;28491;46.898;7.660;2023-09-19T06:50:54;15.20;98.50
42841;DHT22;28491;46.898;7.660;2023-09-19T06:53:20;15.30;98.80
42841;DHT22;28491;46.898;7.660;2023-09-19T06:55:46;15.30;98.80
42841;DHT22;28491;46.898;7.660;2023-09-19T06:58:13;15.40;98.60
42841;DHT22;28491;46.898;7.660;2023-09-19T07:00:38;15.40;98.20
42841;DHT22;28491;46.898;7.660;2023-09-19T07:03:06;15.50;97.70
42841;DHT22;28491;46.898;7.660;2023-09-19T07:05:33;15.50;97.70
42841;DHT22;28491;46.898;7.660;2023-09-19T07:08:01;15.40;97.60
42841;DHT22;28491;46.898;7.660;2023-09-19T07:10:27;15.40;97.70
42841;DHT22;28491;46.898;7.660;2023-09-19T07:13:14;15.50;97.60
42841;DHT22;28491;46.898;7.660;2023-09-19T07:15:42;15.40;97.30
42841;DHT22;28491;46.898;7.660;2023-09-19T07:18:15;15.50;97.40
42841;DHT22;28491;46.898;7.660;2023-09-19T07:20:45;15.50;97.50
42841;DHT22;28491;46.898;7.660;2023-09-19T07:23:21;15.50;97.60
42841;DHT22;28491;46.898;7.660;2023-09-19T07:25:48;15.50;97.10
42841;DHT22;28491;46.898;7.660;2023-09-19T07:28:14;15.50;96.60
42841;DHT22;28491;46.898;7.660;2023-09-19T07:30:40;15.50;96.40
42841;DHT22;28491;46.898;7.660;2023-09-19T07:33:09;15.50;96.50
42841;DHT22;28491;46.898;7.660;2023-09-19T07:35:38;15.50;96.30
42841;DHT22;28491;46.898;7.660;2023-09-19T07:38:07;15.50;96.50
42841;DHT22;28491;46.898;7.660;2023-09-19T07:40:33;15.50;96.60
42841;DHT22;28491;46.898;7.660;2023-09-19T07:42:59;15.50;95.60
42841;DHT22;28491;46.898;7.660;2023-09-19T07:45:28;15.50;95.80
42841;DHT22;28491;46.898;7.660;2023-09-19T07:47:55;15.50;96.20
42841;DHT22;28491;46.898;7.660;2023-09-19T07:50:21;15.60;96.60
42841;DHT22;28491;46.898;7.660;2023-09-19T07:52:48;15.60;96.70
42841;DHT22;28491;46.898;7.660;2023-09-19T07:55:16;15.70;96.80
42841;DHT22;28491;46.898;7.660;2023-09-19T07:57:45;15.70;96.10
42841;DHT22;28491;46.898;7.660;2023-09-19T08:00:12;15.70;96.10
42841;DHT22;28491;46.898;7.660;2023-09-19T08:02:39;15.70;96.20
42841;DHT22;28491;46.898;7.660;2023-09-19T08:05:05;15.80;96.20
42841;DHT22;28491;46.898;7.660;2023-09-19T08:07:33;15.80;96.40
42841;DHT22;28491;46.898;7.660;2023-09-19T08:09:58;15.80;96.30
42841;DHT22;28491;46.898;7.660;2023-09-19T08:12:24;15.70;97.00
42841;DHT22;28491;46.898;7.660;2023-09-19T08:14:50;15.80;97.20
42841;DHT22;28491;46.898;7.660;2023-09-19T08:17:16;15.80;97.00
42841;DHT22;28491;46.898;7.660;2023-09-19T08:19:42;15.80;96.80
42841;DHT22;28491;46.898;7.660;2023-09-19T08:22:10;15.80;96.00
42841;DHT22;28491;46.898;7.660;2023-09-19T08:24:36;15.90;95.90
42841;DHT22;28491;46.898;7.660;2023-09-19T08:27:03;15.90;95.80
42841;DHT22;28491;46.898;7.660;2023-09-19T08:29:30;15.90;95.50
42841;DHT22;28491;46.898;7.660;2023-09-19T08:31:59;15.90;95.30
42841;DHT22;28491;46.898;7.660;2023-09-19T08:34:25;15.90;95.50
42841;DHT22;28491;46.898;7.660;2023-09-19T08:36:51;16.00;96.00
42841;DHT22;28491;46.898;7.660;2023-09-19T08:39:24;16.00;96.00
42841;DHT22;28491;46.898;7.660;2023-09-19T08:42:00;16.00;95.90
42841;DHT22;28491;46.898;7.660;2023-09-19T08:44:26;16.00;95.70
42841;DHT22;28491;46.898;7.660;2023-09-19T08:47:07;16.00;95.90
42841;DHT22;28491;46.898;7.660;2023-09-19T08:52:25;16.00;95.60
42841;DHT22;28491;46.898;7.660;2023-09-19T08:54:58;16.00;95.70
42841;DHT22;28491;46.898;7.660;2023-09-19T08:57:25;16.10;95.90
42841;DHT22;28491;46.898;7.660;2023-09-19T08:59:55;16.10;95.60
42841;DHT22;28491;46.898;7.660;2023-09-19T09:02:22;16.10;95.60
42841;DHT22;28491;46.898;7.660;2023-09-19T09:04:49;16.10;95.30
42841;DHT22;28491;46.898;7.660;2023-09-19T09:07:15;16.10;94.80
42841;DHT22;28491;46.898;7.660;2023-09-19T09:09:42;16.10;93.50
42841;DHT22;28491;46.898;7.660;2023-09-19T09:12:13;16.10;94.00
42841;DHT22;28491;46.898;7.660;2023-09-19T09:14:40;16.10;94.70
42841;DHT22;28491;46.898;7.660;2023-09-19T09:17:06;16.10;94.40
42841;DHT22;28491;46.898;7.660;2023-09-19T09:19:32;16.20;93.90
42841;DHT22;28491;46.898;7.660;2023-09-19T09:22:08;16.40;93.90
42841;DHT22;28491;46.898;7.660;2023-09-19T09:24:34;16.30;94.60
42841;DHT22;28491;46.898;7.660;2023-09-19T09:27:06;16.40;94.60
42841;DHT22;28491;46.898;7.660;2023-09-19T09:29:48;16.40;93.70
42841;DHT22;28491;46.898;7.660;2023-09-19T09:35:15;16.40;92.10
42841;DHT22;28491;46.898;7.660;2023-09-19T09:37:46;16.40;91.10
42841;DHT22;28491;46.898;7.660;2023-09-19T09:40:16;16.50;91.70
42841;DHT22;28491;46.898;7.660;2023-09-19T09:43:02;16.50;91.90
42841;DHT22;28491;46.898;7.660;2023-09-19T09:45:28;16.50;91.80
42841;DHT22;28491;46.898;7.660;2023-09-19T09:48:03;16.60;91.70
42841;DHT22;28491;46.898;7.660;2023-09-19T09:50:33;16.50;90.20
42841;DHT22;28491;46.898;7.660;2023-09-19T09:53:02;16.50;90.90
42841;DHT22;28491;46.898;7.660;2023-09-19T09:56:04;16.50;89.60
42841;DHT22;28491;46.898;7.660;2023-09-19T09:58:57;16.50;90.00
42841;DHT22;28491;46.898;7.660;2023-09-19T10:01:24;16.60;90.30
42841;DHT22;28491;46.898;7.660;2023-09-19T10:03:57;16.60;87.50
42841;DHT22;28491;46.898;7.660;2023-09-19T10:06:23;16.70;78.50
42841;DHT22;28491;46.898;7.660;2023-09-19T10:09:02;16.80;78.50
42841;DHT22;28491;46.898;7.660;2023-09-19T10:11:48;16.90;78.10
42841;DHT22;28491;46.898;7.660;2023-09-19T10:14:27;17.00;69.50
42841;DHT22;28491;46.898;7.660;2023-09-19T10:16:57;17.20;65.70
42841;DHT22;28491;46.898;7.660;2023-09-19T10:19:43;17.30;66.80
42841;DHT22;28491;46.898;7.660;2023-09-19T10:22:12;17.40;67.90
42841;DHT22;28491;46.898;7.660;2023-09-19T10:24:40;17.50;66.90
42841;DHT22;28491;46.898;7.660;2023-09-19T10:27:06;17.30;62.20
42841;DHT22;28491;46.898;7.660;2023-09-19T10:29:36;17.30;34.20
42841;DHT22;28491;46.898;7.660;2023-09-19T10:32:06;17.40;16.00
42841;DHT22;28491;46.898;7.660;2023-09-19T10:34:38;17.20;11.20
42841;DHT22;28491;46.898;7.660;2023-09-19T10:37:07;17.30;10.80
42841;DHT22;28491;46.898;7.660;2023-09-19T10:39:39;17.40;55.90
42841;DHT22;28491;46.898;7.660;2023-09-19T10:42:06;17.30;40.00
42841;DHT22;28491;46.898;7.660;2023-09-19T10:44:38;17.20;10.90
42841;DHT22;28491;46.898;7.660;2023-09-19T10:47:07;17.20;1.00
42841;DHT22;28491;46.898;7.660;2023-09-19T10:49:34;17.20;1.00
42841;DHT22;28491;46.898;7.660;2023-09-19T10:52:01;17.30;1.00
42841;DHT22;28491;46.898;7.660;2023-09-19T10:54:31;17.30;1.00
42841;DHT22;28491;46.898;7.660;2023-09-19T10:56:59;17.30;1.00
42841;DHT22;28491;46.898;7.660;2023-09-19T10:59:26;17.40;1.00
42841;DHT22;28491;46.898;7.660;2023-09-19T11:02:00;17.40;1.00
42841;DHT22;28491;46.898;7.660;2023-09-19T11:04:40;17.40;1.00
42841;DHT22;28491;46.898;7.660;2023-09-19T11:07:11;17.50;1.00
42841;DHT22;28491;46.898;7.660;2023-09-19T11:12:17;17.60;1.00
42841;DHT22;28491;46.898;7.660;2023-09-19T11:15:01;17.50;1.00
42841;DHT22;28491;46.898;7.660;2023-09-19T11:17:34;17.50;1.00
42841;DHT22;28491;46.898;7.660;2023-09-19T11:30:39;17.40;1.00
42841;DHT22;28491;46.898;7.660;2023-09-19T11:46:30;17.90;1.00
42841;DHT22;28491;46.898;7.660;2023-09-19T11:49:05;18.00;1.00
42841;DHT22;28491;46.898;7.660;2023-09-19T11:51:41;18.10;1.00
42841;DHT22;28491;46.898;7.660;2023-09-19T11:54:12;18.00;1.00
42841;DHT22;28491;46.898;7.660;2023-09-19T11:56:56;18.00;1.00
42841;DHT22;28491;46.898;7.660;2023-09-19T11:59:27;18.10;1.00
42841;DHT22;28491;46.898;7.660;2023-09-19T12:01:57;18.00;1.00
42841;DHT22;28491;46.898;7.660;2023-09-19T12:04:37;18.00;1.00
42841;DHT22;28491;46.898;7.660;2023-09-19T12:07:04;18.00;1.00
42841;DHT22;28491;46.898;7.660;2023-09-19T12:09:38;18.10;1.00
42841;DHT22;28491;46.898;7.660;2023-09-19T12:12:04;18.10;1.00
42841;DHT22;28491;46.898;7.660;2023-09-19T12:14:30;18.10;99.90
42841;DHT22;28491;46.898;7.660;2023-09-19T12:16:57;18.10;1.00
42841;DHT22;28491;46.898;7.660;2023-09-19T12:19:24;18.10;99.90
42841;DHT22;28491;46.898;7.660;2023-09-19T12:22:03;18.00;1.00
42841;DHT22;28491;46.898;7.660;2023-09-19T12:24:34;18.10;1.00
42841;DHT22;28491;46.898;7.660;2023-09-19T12:27:04;18.10;1.00
42841;DHT22;28491;46.898;7.660;2023-09-19T12:29:31;18.20;93.20
42841;DHT22;28491;46.898;7.660;2023-09-19T12:31:59;18.10;96.20
42841;DHT22;28491;46.898;7.660;2023-09-19T12:34:32;18.20;99.90
42841;DHT22;28491;46.898;7.660;2023-09-19T12:39:49;18.30;98.60
42841;DHT22;28491;46.898;7.660;2023-09-19T12:42:18;18.30;96.70
42841;DHT22;28491;46.898;7.660;2023-09-19T12:44:46;18.30;99.90
42841;DHT22;28491;46.898;7.660;2023-09-19T12:47:17;18.50;99.90
42841;DHT22;28491;46.898;7.660;2023-09-19T12:52:40;18.50;62.40
42841;DHT22;28491;46.898;7.660;2023-09-19T12:55:06;18.40;70.60
42841;DHT22;28491;46.898;7.660;2023-09-19T12:57:34;18.60;96.80
42841;DHT22;28491;46.898;7.660;2023-09-19T13:00:03;18.50;79.80
42841;DHT22;28491;46.898;7.660;2023-09-19T13:02:31;18.50;74.20
42841;DHT22;28491;46.898;7.660;2023-09-19T13:04:58;18.50;75.00
42841;DHT22;28491;46.898;7.660;2023-09-19T13:07:42;18.40;81.80
42841;DHT22;28491;46.898;7.660;2023-09-19T13:10:13;18.40;78.30
42841;DHT22;28491;46.898;7.660;2023-09-19T13:12:41;18.50;72.80
42841;DHT22;28491;46.898;7.660;2023-09-19T13:15:10;18.50;90.40
42841;DHT22;28491;46.898;7.660;2023-09-19T13:17:46;18.50;41.80
42841;DHT22;28491;46.898;7.660;2023-09-19T13:20:26;18.50;33.20
42841;DHT22;28491;46.898;7.660;2023-09-19T13:22:57;18.60;31.90
42841;DHT22;28491;46.898;7.660;2023-09-19T13:25:33;18.60;75.30
42841;DHT22;28491;46.898;7.660;2023-09-19T13:28:00;18.60;20.10
42841;DHT22;28491;46.898;7.660;2023-09-19T13:30:29;18.60;14.50
42841;DHT22;28491;46.898;7.660;2023-09-19T13:33:08;18.60;63.50
42841;DHT22;28491;46.898;7.660;2023-09-19T13:35:35;18.60;1.00
42841;DHT22;28491;46.898;7.660;2023-09-19T13:38:02;18.60;1.00
42841;DHT22;28491;46.898;7.660;2023-09-19T13:40:27;18.70;30.90
42841;DHT22;28491;46.898;7.660;2023-09-19T13:42:56;18.80;67.40
42841;DHT22;28491;46.898;7.660;2023-09-19T13:45:22;18.80;73.60
42841;DHT22;28491;46.898;7.660;2023-09-19T13:47:50;18.90;70.80
42841;DHT22;28491;46.898;7.660;2023-09-19T13:50:15;18.80;80.90
42841;DHT22;28491;46.898;7.660;2023-09-19T13:52:42;18.90;71.80
42841;DHT22;28491;46.898;7.660;2023-09-19T13:55:08;18.90;1.00
42841;DHT22;28491;46.898;7.660;2023-09-19T13:57:34;18.90;2.00
42841;DHT22;28491;46.898;7.660;2023-09-19T13:59:59;18.90;60.40
42841;DHT22;28491;46.898;7.660;2023-09-19T14:02:25;18.90;69.80
42841;DHT22;28491;46.898;7.660;2023-09-19T14:04:52;19.00;1.50
42841;DHT22;28491;46.898;7.660;2023-09-19T14:07:18;18.90;1.00
42841;DHT22;28491;46.898;7.660;2023-09-19T14:09:45;19.00;61.10
42841;DHT22;28491;46.898;7.660;2023-09-19T14:12:11;19.00;74.20
42841;DHT22;28491;46.898;7.660;2023-09-19T14:14:37;19.00;82.50
42841;DHT22;28491;46.898;7.660;2023-09-19T14:17:04;19.00;70.30
42841;DHT22;28491;46.898;7.660;2023-09-19T14:19:29;19.00;1.00
42841;DHT22;28491;46.898;7.660;2023-09-19T14:21:55;19.10;1.00
42841;DHT22;28491;46.898;7.660;2023-09-19T14:24:21;19.10;1.00
42841;DHT22;28491;46.898;7.660;2023-09-19T14:26:48;19.10;94.00
42841;DHT22;28491;46.898;7.660;2023-09-19T14:29:14;19.00;99.90
42841;DHT22;28491;46.898;7.660;2023-09-19T14:31:41;19.00;1.00
42841;DHT22;28491;46.898;7.660;2023-09-19T14:34:07;19.00;1.00
42841;DHT22;28491;46.898;7.660;2023-09-19T14:36:35;19.00;1.00
42841;DHT22;28491;46.898;7.660;2023-09-19T14:39:01;19.00;1.00
42841;DHT22;28491;46.898;7.660;2023-09-19T14:41:27;19.10;1.00
42841;DHT22;28491;46.898;7.660;2023-09-19T14:43:53;19.20;97.60
42841;DHT22;28491;46.898;7.660;2023-09-19T14:46:20;19.30;99.90
42841;DHT22;28491;46.898;7.660;2023-09-19T14:48:46;19.30;99.70
42841;DHT22;28491;46.898;7.660;2023-09-19T14:51:15;19.40;96.80
42841;DHT22;28491;46.898;7.660;2023-09-19T14:53:41;19.40;96.10
42841;DHT22;28491;46.898;7.660;2023-09-19T14:56:08;19.30;95.60
42841;DHT22;28491;46.898;7.660;2023-09-19T14:58:34;19.40;99.90
42841;DHT22;28491;46.898;7.660;2023-09-19T15:01:08;19.30;1.00
42841;DHT22;28491;46.898;7.660;2023-09-19T15:03:36;19.20;18.20
42841;DHT22;28491;46.898;7.660;2023-09-19T15:06:05;19.30;24.00
42841;DHT22;28491;46.898;7.660;2023-09-19T15:08:34;19.20;1.00
42841;DHT22;28491;46.898;7.660;2023-09-19T15:11:01;19.20;1.00
42841;DHT22;28491;46.898;7.660;2023-09-19T15:13:29;19.30;33.30
42841;DHT22;28491;46.898;7.660;2023-09-19T15:16:02;19.30;74.00
42841;DHT22;28491;46.898;7.660;2023-09-19T15:18:29;19.20;1.00
42841;DHT22;28491;46.898;7.660;2023-09-19T15:21:12;19.30;1.00
42841;DHT22;28491;46.898;7.660;2023-09-19T15:23:40;19.20;54.50
42841;DHT22;28491;46.898;7.660;2023-09-19T15:26:07;19.20;77.20
42841;DHT22;28491;46.898;7.660;2023-09-19T15:28:34;19.20;1.00
42841;DHT22;28491;46.898;7.660;2023-09-19T15:31:10;19.20;98.10
42841;DHT22;28491;46.898;7.660;2023-09-19T15:33:36;19.30;98.40
42841;DHT22;28491;46.898;7.660;2023-09-19T15:36:07;19.20;1.00
42841;DHT22;28491;46.898;7.660;2023-09-19T15:38:57;19.20;13.40
42841;DHT22;28491;46.898;7.660;2023-09-19T15:41:23;19.20;68.10
42841;DHT22;28491;46.898;7.660;2023-09-19T15:43:49;19.20;73.10
42841;DHT22;28491;46.898;7.660;2023-09-19T15:46:14;19.20;65.80
42841;DHT22;28491;46.898;7.660;2023-09-19T15:48:41;19.20;64.10
42841;DHT22;28491;46.898;7.660;2023-09-19T15:51:07;19.20;75.20
42841;DHT22;28491;46.898;7.660;2023-09-19T15:53:49;19.20;80.70
42841;DHT22;28491;46.898;7.660;2023-09-19T15:56:16;19.20;91.00
42841;DHT22;28491;46.898;7.660;2023-09-19T15:58:44;19.20;90.20
42841;DHT22;28491;46.898;7.660;2023-09-19T16:01:10;19.20;80.30
42841;DHT22;28491;46.898;7.660;2023-09-19T16:03:42;19.20;68.30
42841;DHT22;28491;46.898;7.660;2023-09-19T16:06:13;19.10;80.50
42841;DHT22;28491;46.898;7.660;2023-09-19T16:08:44;19.10;84.10
42841;DHT22;28491;46.898;7.660;2023-09-19T16:11:10;19.10;73.60
42841;DHT22;28491;46.898;7.660;2023-09-19T16:13:37;19.00;65.90
42841;DHT22;28491;46.898;7.660;2023-09-19T16:16:03;19.10;77.70
42841;DHT22;28491;46.898;7.660;2023-09-19T16:18:29;19.10;67.40
42841;DHT22;28491;46.898;7.660;2023-09-19T16:21:04;19.10;61.00
42841;DHT22;28491;46.898;7.660;2023-09-19T16:23:31;19.20;70.40
42841;DHT22;28491;46.898;7.660;2023-09-19T16:26:07;19.20;72.30
42841;DHT22;28491;46.898;7.660;2023-09-19T16:28:35;19.20;79.00
42841;DHT22;28491;46.898;7.660;2023-09-19T16:31:02;19.10;85.40
42841;DHT22;28491;46.898;7.660;2023-09-19T16:33:29;19.10;79.50
42841;DHT22;28491;46.898;7.660;2023-09-19T16:35:55;19.10;84.20
42841;DHT22;28491;46.898;7.660;2023-09-19T16:38:22;19.10;84.90
42841;DHT22;28491;46.898;7.660;2023-09-19T16:40:58;19.10;89.90
42841;DHT22;28491;46.898;7.660;2023-09-19T16:43:27;19.00;90.40